sensor_id;sensor_type;location;lat;lon;timestamp;P1;durP1;ratioP1;P2;durP2;ratioP2
13704;SDS011;6924;52.122;9.952;2023-03-01T00:02:00;4.37;;;4.00;;
13704;SDS011;6924;52.122;9.952;2023-03-01T00:04:26;6.03;;;4.73;;
13704;SDS011;6924;52.122;9.952;2023-03-01T00:06:53;5.33;;;4.50;;
13704;SDS011;6924;52.122;9.952;2023-03-01T00:09:19;5.20;;;4.50;;
13704;SDS011;6924;52.122;9.952;2023-03-01T00:11:46;5.43;;;4.33;;
13704;SDS011;6924;52.122;9.952;2023-03-01T00:14:12;8.90;;;4.50;;
13704;SDS011;6924;52.122;9.952;2023-03-01T00:16:40;4.90;;;3.83;;
13704;SDS011;6924;52.122;9.952;2023-03-01T00:19:09;5.93;;;4.20;;
13704;SDS011;6924;52.122;9.952;2023-03-01T00:21:38;5.23;;;4.50;;
13704;SDS011;6924;52.122;9.952;2023-03-01T00:24:05;4.13;;;3.70;;
13704;SDS011;6924;52.122;9.952;2023-03-01T00:26:32;3.73;;;3.37;;
13704;SDS011;6924;52.122;9.952;2023-03-01T00:28:59;4.33;;;3.53;;
13704;SDS011;6924;52.122;9.952;2023-03-01T00:31:26;4.67;;;3.90;;
13704;SDS011;6924;52.122;9.952;2023-03-01T00:33:55;5.87;;;4.27;;
13704;SDS011;6924;52.122;9.952;2023-03-01T00:36:25;5.03;;;3.40;;
13704;SDS011;6924;52.122;9.952;2023-03-01T00:38:53;4.87;;;3.93;;
13704;SDS011;6924;52.122;9.952;2023-03-01T00:41:20;4.63;;;3.80;;
13704;SDS011;6924;52.122;9.952;2023-03-01T00:43:48;4.53;;;4.03;;
13704;SDS011;6924;52.122;9.952;2023-03-01T00:46:16;4.47;;;4.07;;
13704;SDS011;6924;52.122;9.952;2023-03-01T00:48:45;7.40;;;3.63;;
13704;SDS011;6924;52.122;9.952;2023-03-01T00:51:12;4.00;;;3.57;;
13704;SDS011;6924;52.122;9.952;2023-03-01T00:53:42;3.90;;;3.57;;
13704;SDS011;6924;52.122;9.952;2023-03-01T00:56:10;5.00;;;3.93;;
13704;SDS011;6924;52.122;9.952;2023-03-01T00:58:38;6.50;;;3.77;;
13704;SDS011;6924;52.122;9.952;2023-03-01T01:01:08;5.23;;;3.90;;
13704;SDS011;6924;52.122;9.952;2023-03-01T01:03:42;5.37;;;3.77;;
13704;SDS011;6924;52.122;9.952;2023-03-01T01:06:12;4.70;;;3.93;;
13704;SDS011;6924;52.122;9.952;2023-03-01T01:08:40;4.57;;;4.17;;
13704;SDS011;6924;52.122;9.952;2023-03-01T01:11:09;3.73;;;3.43;;
13704;SDS011;6924;52.122;9.952;2023-03-01T01:13:37;4.13;;;3.50;;
13704;SDS011;6924;52.122;9.952;2023-03-01T01:16:04;4.07;;;3.57;;
13704;SDS011;6924;52.122;9.952;2023-03-01T01:18:32;4.97;;;4.33;;
13704;SDS011;6924;52.122;9.952;2023-03-01T01:21:02;5.23;;;4.70;;
13704;SDS011;6924;52.122;9.952;2023-03-01T01:23:29;3.57;;;3.17;;
13704;SDS011;6924;52.122;9.952;2023-03-01T01:25:56;5.03;;;3.30;;
13704;SDS011;6924;52.122;9.952;2023-03-01T01:28:23;4.87;;;3.70;;
13704;SDS011;6924;52.122;9.952;2023-03-01T01:30:50;4.50;;;3.57;;
13704;SDS011;6924;52.122;9.952;2023-03-01T01:33:16;5.37;;;4.67;;
13704;SDS011;6924;52.122;9.952;2023-03-01T01:35:44;5.97;;;4.23;;
13704;SDS011;6924;52.122;9.952;2023-03-01T01:38:11;4.20;;;3.73;;
13704;SDS011;6924;52.122;9.952;2023-03-01T01:40:42;4.77;;;3.90;;
13704;SDS011;6924;52.122;9.952;2023-03-01T01:43:11;5.47;;;4.30;;
13704;SDS011;6924;52.122;9.952;2023-03-01T01:45:45;4.47;;;3.50;;
13704;SDS011;6924;52.122;9.952;2023-03-01T01:48:12;4.17;;;3.77;;
13704;SDS011;6924;52.122;9.952;2023-03-01T01:50:42;6.63;;;3.57;;
13704;SDS011;6924;52.122;9.952;2023-03-01T01:53:10;4.13;;;3.70;;
13704;SDS011;6924;52.122;9.952;2023-03-01T01:55:39;6.50;;;4.27;;
13704;SDS011;6924;52.122;9.952;2023-03-01T01:58:08;5.07;;;4.07;;
13704;SDS011;6924;52.122;9.952;2023-03-01T02:00:37;4.60;;;3.87;;
13704;SDS011;6924;52.122;9.952;2023-03-01T02:03:07;5.53;;;3.57;;
13704;SDS011;6924;52.122;9.952;2023-03-01T02:05:37;4.80;;;4.30;;
13704;SDS011;6924;52.122;9.952;2023-03-01T02:08:09;11.10;;;4.00;;
13704;SDS011;6924;52.122;9.952;2023-03-01T02:10:38;4.40;;;4.00;;
13704;SDS011;6924;52.122;9.952;2023-03-01T02:13:06;3.80;;;3.50;;
13704;SDS011;6924;52.122;9.952;2023-03-01T02:15:33;4.67;;;3.57;;
13704;SDS011;6924;52.122;9.952;2023-03-01T02:18:02;4.33;;;3.63;;
13704;SDS011;6924;52.122;9.952;2023-03-01T02:20:34;5.93;;;4.33;;
13704;SDS011;6924;52.122;9.952;2023-03-01T02:23:06;4.40;;;3.57;;
13704;SDS011;6924;52.122;9.952;2023-03-01T02:25:35;4.20;;;3.50;;
13704;SDS011;6924;52.122;9.952;2023-03-01T02:28:08;4.60;;;4.10;;
13704;SDS011;6924;52.122;9.952;2023-03-01T02:30:38;3.97;;;2.80;;
13704;SDS011;6924;52.122;9.952;2023-03-01T02:33:26;5.87;;;3.37;;
13704;SDS011;6924;52.122;9.952;2023-03-01T02:35:52;4.40;;;3.60;;
13704;SDS011;6924;52.122;9.952;2023-03-01T02:38:20;4.13;;;3.13;;
13704;SDS011;6924;52.122;9.952;2023-03-01T02:40:48;3.97;;;3.40;;
13704;SDS011;6924;52.122;9.952;2023-03-01T02:43:17;5.27;;;3.50;;
13704;SDS011;6924;52.122;9.952;2023-03-01T02:45:49;4.10;;;3.27;;
13704;SDS011;6924;52.122;9.952;2023-03-01T02:48:16;4.47;;;3.27;;
13704;SDS011;6924;52.122;9.952;2023-03-01T02:50:46;4.97;;;2.87;;
13704;SDS011;6924;52.122;9.952;2023-03-01T02:53:32;7.90;;;3.50;;
13704;SDS011;6924;52.122;9.952;2023-03-01T02:56:05;3.73;;;3.03;;
13704;SDS011;6924;52.122;9.952;2023-03-01T02:58:37;4.53;;;2.97;;
13704;SDS011;6924;52.122;9.952;2023-03-01T03:01:11;3.80;;;3.30;;
13704;SDS011;6924;52.122;9.952;2023-03-01T03:03:38;3.87;;;3.10;;
13704;SDS011;6924;52.122;9.952;2023-03-01T03:06:05;5.47;;;4.40;;
13704;SDS011;6924;52.122;9.952;2023-03-01T03:08:31;4.13;;;2.83;;
13704;SDS011;6924;52.122;9.952;2023-03-01T03:10:58;4.03;;;3.20;;
13704;SDS011;6924;52.122;9.952;2023-03-01T03:13:24;4.43;;;2.87;;
13704;SDS011;6924;52.122;9.952;2023-03-01T03:15:53;5.43;;;3.03;;
13704;SDS011;6924;52.122;9.952;2023-03-01T03:18:22;3.50;;;2.60;;
13704;SDS011;6924;52.122;9.952;2023-03-01T03:20:50;2.97;;;2.50;;
13704;SDS011;6924;52.122;9.952;2023-03-01T03:23:18;3.60;;;2.80;;
13704;SDS011;6924;52.122;9.952;2023-03-01T03:25:47;4.40;;;3.23;;
13704;SDS011;6924;52.122;9.952;2023-03-01T03:28:14;5.57;;;2.73;;
13704;SDS011;6924;52.122;9.952;2023-03-01T03:30:41;3.20;;;2.87;;
13704;SDS011;6924;52.122;9.952;2023-03-01T03:33:10;4.57;;;3.20;;
13704;SDS011;6924;52.122;9.952;2023-03-01T03:35:40;5.97;;;3.57;;
13704;SDS011;6924;52.122;9.952;2023-03-01T03:38:08;4.70;;;3.63;;
13704;SDS011;6924;52.122;9.952;2023-03-01T03:40:41;4.10;;;3.70;;
13704;SDS011;6924;52.122;9.952;2023-03-01T03:43:09;5.63;;;4.47;;
13704;SDS011;6924;52.122;9.952;2023-03-01T03:45:37;5.20;;;4.23;;
13704;SDS011;6924;52.122;9.952;2023-03-01T03:48:05;5.07;;;3.67;;
13704;SDS011;6924;52.122;9.952;2023-03-01T03:50:34;4.57;;;4.17;;
13704;SDS011;6924;52.122;9.952;2023-03-01T03:53:03;7.57;;;4.33;;
13704;SDS011;6924;52.122;9.952;2023-03-01T03:55:30;4.17;;;3.77;;
13704;SDS011;6924;52.122;9.952;2023-03-01T03:57:59;5.17;;;4.20;;
13704;SDS011;6924;52.122;9.952;2023-03-01T04:00:31;3.97;;;3.53;;
13704;SDS011;6924;52.122;9.952;2023-03-01T04:02:58;6.87;;;3.40;;
13704;SDS011;6924;52.122;9.952;2023-03-01T04:05:26;4.57;;;3.23;;
13704;SDS011;6924;52.122;9.952;2023-03-01T04:07:53;5.27;;;4.60;;
13704;SDS011;6924;52.122;9.952;2023-03-01T04:10:27;5.43;;;3.87;;
13704;SDS011;6924;52.122;9.952;2023-03-01T04:12:54;4.43;;;3.70;;
13704;SDS011;6924;52.122;9.952;2023-03-01T04:15:22;5.13;;;4.07;;
13704;SDS011;6924;52.122;9.952;2023-03-01T04:17:50;3.33;;;3.03;;
13704;SDS011;6924;52.122;9.952;2023-03-01T04:20:18;4.83;;;3.87;;
13704;SDS011;6924;52.122;9.952;2023-03-01T04:22:50;4.03;;;3.63;;
13704;SDS011;6924;52.122;9.952;2023-03-01T04:25:17;6.90;;;3.57;;
13704;SDS011;6924;52.122;9.952;2023-03-01T04:27:45;4.40;;;4.00;;
13704;SDS011;6924;52.122;9.952;2023-03-01T04:30:12;3.97;;;3.50;;
13704;SDS011;6924;52.122;9.952;2023-03-01T04:32:38;6.63;;;4.23;;
13704;SDS011;6924;52.122;9.952;2023-03-01T04:35:05;5.20;;;3.57;;
13704;SDS011;6924;52.122;9.952;2023-03-01T04:37:31;4.00;;;3.20;;
13704;SDS011;6924;52.122;9.952;2023-03-01T04:39:58;5.00;;;3.53;;
13704;SDS011;6924;52.122;9.952;2023-03-01T04:42:24;4.57;;;4.17;;
13704;SDS011;6924;52.122;9.952;2023-03-01T04:44:53;4.33;;;3.90;;
13704;SDS011;6924;52.122;9.952;2023-03-01T04:47:19;4.67;;;3.60;;
13704;SDS011;6924;52.122;9.952;2023-03-01T04:49:45;4.17;;;3.77;;
13704;SDS011;6924;52.122;9.952;2023-03-01T04:52:12;3.73;;;3.33;;
13704;SDS011;6924;52.122;9.952;2023-03-01T04:54:38;3.60;;;2.83;;
13704;SDS011;6924;52.122;9.952;2023-03-01T04:57:04;4.47;;;3.53;;
13704;SDS011;6924;52.122;9.952;2023-03-01T04:59:31;4.87;;;3.50;;
13704;SDS011;6924;52.122;9.952;2023-03-01T05:01:59;3.87;;;2.93;;
13704;SDS011;6924;52.122;9.952;2023-03-01T05:04:26;3.80;;;3.37;;
13704;SDS011;6924;52.122;9.952;2023-03-01T05:06:53;4.60;;;2.53;;
13704;SDS011;6924;52.122;9.952;2023-03-01T05:09:20;4.67;;;3.13;;
13704;SDS011;6924;52.122;9.952;2023-03-01T05:11:47;4.20;;;3.00;;
13704;SDS011;6924;52.122;9.952;2023-03-01T05:14:13;5.33;;;3.97;;
13704;SDS011;6924;52.122;9.952;2023-03-01T05:16:40;5.37;;;4.07;;
13704;SDS011;6924;52.122;9.952;2023-03-01T05:19:08;4.87;;;3.53;;
13704;SDS011;6924;52.122;9.952;2023-03-01T05:21:40;4.43;;;3.40;;
13704;SDS011;6924;52.122;9.952;2023-03-01T05:24:20;3.30;;;3.00;;
13704;SDS011;6924;52.122;9.952;2023-03-01T05:26:47;4.77;;;3.63;;
13704;SDS011;6924;52.122;9.952;2023-03-01T05:29:13;5.00;;;4.00;;
13704;SDS011;6924;52.122;9.952;2023-03-01T05:31:40;6.60;;;4.87;;
13704;SDS011;6924;52.122;9.952;2023-03-01T05:34:07;8.50;;;4.77;;
13704;SDS011;6924;52.122;9.952;2023-03-01T05:36:34;6.43;;;5.33;;
13704;SDS011;6924;52.122;9.952;2023-03-01T05:39:00;6.37;;;4.17;;
13704;SDS011;6924;52.122;9.952;2023-03-01T05:41:27;7.30;;;4.80;;
13704;SDS011;6924;52.122;9.952;2023-03-01T05:43:53;6.00;;;3.87;;
13704;SDS011;6924;52.122;9.952;2023-03-01T05:46:19;4.97;;;4.13;;
13704;SDS011;6924;52.122;9.952;2023-03-01T05:48:48;5.53;;;4.23;;
13704;SDS011;6924;52.122;9.952;2023-03-01T05:51:16;7.67;;;4.23;;
13704;SDS011;6924;52.122;9.952;2023-03-01T05:53:42;5.27;;;4.77;;
13704;SDS011;6924;52.122;9.952;2023-03-01T05:56:08;6.83;;;4.67;;
13704;SDS011;6924;52.122;9.952;2023-03-01T05:58:35;5.40;;;4.50;;
13704;SDS011;6924;52.122;9.952;2023-03-01T06:01:03;5.37;;;4.87;;
13704;SDS011;6924;52.122;9.952;2023-03-01T06:03:30;5.53;;;3.70;;
13704;SDS011;6924;52.122;9.952;2023-03-01T06:05:56;6.77;;;3.83;;
13704;SDS011;6924;52.122;9.952;2023-03-01T06:08:24;4.97;;;4.47;;
13704;SDS011;6924;52.122;9.952;2023-03-01T06:10:52;5.07;;;4.57;;
13704;SDS011;6924;52.122;9.952;2023-03-01T06:13:18;4.27;;;3.87;;
13704;SDS011;6924;52.122;9.952;2023-03-01T06:15:45;6.17;;;4.37;;
13704;SDS011;6924;52.122;9.952;2023-03-01T06:18:11;5.23;;;4.03;;
13704;SDS011;6924;52.122;9.952;2023-03-01T06:20:38;5.07;;;4.17;;
13704;SDS011;6924;52.122;9.952;2023-03-01T06:23:04;5.53;;;4.30;;
13704;SDS011;6924;52.122;9.952;2023-03-01T06:25:32;4.80;;;4.13;;
13704;SDS011;6924;52.122;9.952;2023-03-01T06:27:58;5.17;;;4.67;;
13704;SDS011;6924;52.122;9.952;2023-03-01T06:30:25;5.00;;;4.03;;
13704;SDS011;6924;52.122;9.952;2023-03-01T06:32:52;4.47;;;3.70;;
13704;SDS011;6924;52.122;9.952;2023-03-01T06:35:26;4.40;;;3.73;;
13704;SDS011;6924;52.122;9.952;2023-03-01T06:37:54;5.33;;;4.30;;
13704;SDS011;6924;52.122;9.952;2023-03-01T06:40:22;4.53;;;3.67;;
13704;SDS011;6924;52.122;9.952;2023-03-01T06:42:50;5.33;;;4.40;;
13704;SDS011;6924;52.122;9.952;2023-03-01T06:45:17;9.57;;;6.17;;
13704;SDS011;6924;52.122;9.952;2023-03-01T06:47:45;6.70;;;5.30;;
13704;SDS011;6924;52.122;9.952;2023-03-01T06:50:12;6.60;;;5.80;;
13704;SDS011;6924;52.122;9.952;2023-03-01T06:52:39;7.60;;;5.87;;
13704;SDS011;6924;52.122;9.952;2023-03-01T06:55:06;8.50;;;5.87;;
13704;SDS011;6924;52.122;9.952;2023-03-01T06:57:33;8.53;;;6.57;;
13704;SDS011;6924;52.122;9.952;2023-03-01T07:00:01;7.43;;;6.63;;
13704;SDS011;6924;52.122;9.952;2023-03-01T07:02:27;6.30;;;5.40;;
13704;SDS011;6924;52.122;9.952;2023-03-01T07:04:54;12.80;;;7.40;;
13704;SDS011;6924;52.122;9.952;2023-03-01T07:07:20;7.40;;;6.63;;
13704;SDS011;6924;52.122;9.952;2023-03-01T07:09:48;6.50;;;5.47;;
13704;SDS011;6924;52.122;9.952;2023-03-01T07:12:15;8.13;;;6.13;;
13704;SDS011;6924;52.122;9.952;2023-03-01T07:14:43;7.47;;;5.60;;
13704;SDS011;6924;52.122;9.952;2023-03-01T07:17:11;9.43;;;6.07;;
13704;SDS011;6924;52.122;9.952;2023-03-01T07:19:37;11.27;;;6.80;;
13704;SDS011;6924;52.122;9.952;2023-03-01T07:22:04;7.10;;;6.40;;
13704;SDS011;6924;52.122;9.952;2023-03-01T07:24:32;7.33;;;6.60;;
13704;SDS011;6924;52.122;9.952;2023-03-01T07:26:59;9.30;;;6.93;;
13704;SDS011;6924;52.122;9.952;2023-03-01T07:29:25;8.67;;;7.27;;
13704;SDS011;6924;52.122;9.952;2023-03-01T07:31:53;7.83;;;6.53;;
13704;SDS011;6924;52.122;9.952;2023-03-01T07:34:21;13.87;;;7.70;;
13704;SDS011;6924;52.122;9.952;2023-03-01T07:36:47;9.30;;;7.20;;
13704;SDS011;6924;52.122;9.952;2023-03-01T07:39:14;7.80;;;7.00;;
13704;SDS011;6924;52.122;9.952;2023-03-01T07:41:41;11.13;;;8.50;;
13704;SDS011;6924;52.122;9.952;2023-03-01T07:44:07;10.13;;;7.67;;
13704;SDS011;6924;52.122;9.952;2023-03-01T07:46:34;8.67;;;7.43;;
13704;SDS011;6924;52.122;9.952;2023-03-01T07:49:00;9.17;;;7.17;;
13704;SDS011;6924;52.122;9.952;2023-03-01T07:51:28;11.40;;;8.20;;
13704;SDS011;6924;52.122;9.952;2023-03-01T07:53:54;11.00;;;7.07;;
13704;SDS011;6924;52.122;9.952;2023-03-01T07:56:21;12.37;;;7.20;;
13704;SDS011;6924;52.122;9.952;2023-03-01T07:58:47;8.87;;;7.97;;
13704;SDS011;6924;52.122;9.952;2023-03-01T08:01:14;10.43;;;8.33;;
13704;SDS011;6924;52.122;9.952;2023-03-01T08:03:42;9.20;;;7.40;;
13704;SDS011;6924;52.122;9.952;2023-03-01T08:06:10;8.93;;;7.97;;
13704;SDS011;6924;52.122;9.952;2023-03-01T08:08:38;10.37;;;7.57;;
13704;SDS011;6924;52.122;9.952;2023-03-01T08:11:05;10.17;;;7.27;;
13704;SDS011;6924;52.122;9.952;2023-03-01T08:13:33;10.60;;;7.23;;
13704;SDS011;6924;52.122;9.952;2023-03-01T08:16:00;11.53;;;7.17;;
13704;SDS011;6924;52.122;9.952;2023-03-01T08:18:27;8.27;;;7.27;;
13704;SDS011;6924;52.122;9.952;2023-03-01T08:20:54;10.03;;;7.73;;
13704;SDS011;6924;52.122;9.952;2023-03-01T08:23:20;10.63;;;8.67;;
13704;SDS011;6924;52.122;9.952;2023-03-01T08:25:48;13.23;;;7.47;;
13704;SDS011;6924;52.122;9.952;2023-03-01T08:28:14;13.10;;;8.57;;
13704;SDS011;6924;52.122;9.952;2023-03-01T08:30:41;14.53;;;8.97;;
13704;SDS011;6924;52.122;9.952;2023-03-01T08:33:07;10.93;;;8.53;;
13704;SDS011;6924;52.122;9.952;2023-03-01T08:35:33;9.00;;;7.70;;
13704;SDS011;6924;52.122;9.952;2023-03-01T08:38:00;9.23;;;7.83;;
13704;SDS011;6924;52.122;9.952;2023-03-01T08:40:26;8.73;;;7.20;;
13704;SDS011;6924;52.122;9.952;2023-03-01T08:42:54;8.27;;;7.00;;
13704;SDS011;6924;52.122;9.952;2023-03-01T08:45:20;10.97;;;8.60;;
13704;SDS011;6924;52.122;9.952;2023-03-01T08:47:47;9.83;;;8.23;;
13704;SDS011;6924;52.122;9.952;2023-03-01T08:50:13;8.00;;;7.00;;
13704;SDS011;6924;52.122;9.952;2023-03-01T08:52:39;8.97;;;8.00;;
13704;SDS011;6924;52.122;9.952;2023-03-01T08:55:06;8.90;;;7.37;;
13704;SDS011;6924;52.122;9.952;2023-03-01T08:57:34;8.47;;;7.63;;
13704;SDS011;6924;52.122;9.952;2023-03-01T09:00:01;8.83;;;7.93;;
13704;SDS011;6924;52.122;9.952;2023-03-01T09:02:32;9.03;;;8.10;;
13704;SDS011;6924;52.122;9.952;2023-03-01T09:04:59;9.27;;;7.60;;
13704;SDS011;6924;52.122;9.952;2023-03-01T09:07:25;11.23;;;7.83;;
13704;SDS011;6924;52.122;9.952;2023-03-01T09:09:53;9.13;;;8.23;;
13704;SDS011;6924;52.122;9.952;2023-03-01T09:12:20;19.43;;;8.77;;
13704;SDS011;6924;52.122;9.952;2023-03-01T09:14:46;9.10;;;8.20;;
13704;SDS011;6924;52.122;9.952;2023-03-01T09:17:14;9.33;;;8.37;;
13704;SDS011;6924;52.122;9.952;2023-03-01T09:19:40;8.47;;;7.63;;
13704;SDS011;6924;52.122;9.952;2023-03-01T09:22:07;8.87;;;7.93;;
13704;SDS011;6924;52.122;9.952;2023-03-01T09:24:33;9.23;;;8.07;;
13704;SDS011;6924;52.122;9.952;2023-03-01T09:27:00;9.03;;;7.30;;
13704;SDS011;6924;52.122;9.952;2023-03-01T09:29:26;11.23;;;8.33;;
13704;SDS011;6924;52.122;9.952;2023-03-01T09:31:53;8.00;;;7.20;;
13704;SDS011;6924;52.122;9.952;2023-03-01T09:34:21;13.00;;;7.60;;
13704;SDS011;6924;52.122;9.952;2023-03-01T09:36:49;7.53;;;6.77;;
13704;SDS011;6924;52.122;9.952;2023-03-01T09:39:16;9.93;;;7.90;;
13704;SDS011;6924;52.122;9.952;2023-03-01T09:41:44;11.27;;;7.80;;
13704;SDS011;6924;52.122;9.952;2023-03-01T09:44:18;8.00;;;7.20;;
13704;SDS011;6924;52.122;9.952;2023-03-01T09:46:52;8.57;;;7.17;;
13704;SDS011;6924;52.122;9.952;2023-03-01T09:49:20;8.33;;;6.47;;
13704;SDS011;6924;52.122;9.952;2023-03-01T09:51:54;8.30;;;7.33;;
13704;SDS011;6924;52.122;9.952;2023-03-01T09:54:23;9.23;;;6.93;;
13704;SDS011;6924;52.122;9.952;2023-03-01T09:56:54;7.40;;;6.37;;
13704;SDS011;6924;52.122;9.952;2023-03-01T09:59:31;9.70;;;6.57;;
13704;SDS011;6924;52.122;9.952;2023-03-01T10:02:11;6.53;;;5.87;;
13704;SDS011;6924;52.122;9.952;2023-03-01T10:04:51;6.53;;;5.80;;
13704;SDS011;6924;52.122;9.952;2023-03-01T10:07:22;6.57;;;5.90;;
13704;SDS011;6924;52.122;9.952;2023-03-01T10:09:57;7.00;;;6.30;;
13704;SDS011;6924;52.122;9.952;2023-03-01T10:12:26;7.70;;;6.90;;
13704;SDS011;6924;52.122;9.952;2023-03-01T10:14:58;6.90;;;6.20;;
13704;SDS011;6924;52.122;9.952;2023-03-01T10:17:30;6.73;;;5.93;;
13704;SDS011;6924;52.122;9.952;2023-03-01T10:20:16;8.37;;;7.43;;
13704;SDS011;6924;52.122;9.952;2023-03-01T10:22:45;6.60;;;6.00;;
13704;SDS011;6924;52.122;9.952;2023-03-01T10:25:15;6.33;;;5.73;;
13704;SDS011;6924;52.122;9.952;2023-03-01T10:27:46;7.27;;;6.37;;
13704;SDS011;6924;52.122;9.952;2023-03-01T10:30:19;7.10;;;6.20;;
13704;SDS011;6924;52.122;9.952;2023-03-01T10:32:49;6.53;;;6.00;;
13704;SDS011;6924;52.122;9.952;2023-03-01T10:35:21;8.80;;;6.93;;
13704;SDS011;6924;52.122;9.952;2023-03-01T10:37:58;7.73;;;7.03;;
13704;SDS011;6924;52.122;9.952;2023-03-01T10:40:29;5.67;;;5.13;;
13704;SDS011;6924;52.122;9.952;2023-03-01T10:42:57;7.90;;;5.30;;
13704;SDS011;6924;52.122;9.952;2023-03-01T10:45:30;6.93;;;6.20;;
13704;SDS011;6924;52.122;9.952;2023-03-01T10:48:08;6.87;;;5.67;;
13704;SDS011;6924;52.122;9.952;2023-03-01T10:50:40;7.90;;;4.47;;
13704;SDS011;6924;52.122;9.952;2023-03-01T10:53:16;20.43;;;6.03;;
13704;SDS011;6924;52.122;9.952;2023-03-01T10:55:48;11.07;;;5.00;;
13704;SDS011;6924;52.122;9.952;2023-03-01T10:58:23;8.40;;;7.13;;
13704;SDS011;6924;52.122;9.952;2023-03-01T11:00:50;7.83;;;6.03;;
13704;SDS011;6924;52.122;9.952;2023-03-01T11:03:19;10.80;;;7.17;;
13704;SDS011;6924;52.122;9.952;2023-03-01T11:05:59;7.37;;;6.00;;
13704;SDS011;6924;52.122;9.952;2023-03-01T11:08:38;7.33;;;5.17;;
13704;SDS011;6924;52.122;9.952;2023-03-01T11:11:22;7.13;;;5.80;;
13704;SDS011;6924;52.122;9.952;2023-03-01T11:13:53;7.77;;;5.20;;
13704;SDS011;6924;52.122;9.952;2023-03-01T11:19:14;9.97;;;6.57;;
13704;SDS011;6924;52.122;9.952;2023-03-01T11:21:47;7.43;;;4.97;;
13704;SDS011;6924;52.122;9.952;2023-03-01T11:24:22;7.37;;;5.33;;
13704;SDS011;6924;52.122;9.952;2023-03-01T11:26:54;8.27;;;6.00;;
13704;SDS011;6924;52.122;9.952;2023-03-01T11:29:25;6.57;;;5.87;;
13704;SDS011;6924;52.122;9.952;2023-03-01T11:31:57;7.47;;;5.97;;
13704;SDS011;6924;52.122;9.952;2023-03-01T11:34:30;8.93;;;4.77;;
13704;SDS011;6924;52.122;9.952;2023-03-01T11:37:08;5.43;;;4.30;;
13704;SDS011;6924;52.122;9.952;2023-03-01T11:39:43;7.00;;;4.27;;
13704;SDS011;6924;52.122;9.952;2023-03-01T11:42:17;5.60;;;3.53;;
13704;SDS011;6924;52.122;9.952;2023-03-01T11:44:46;4.80;;;4.03;;
13704;SDS011;6924;52.122;9.952;2023-03-01T11:47:19;7.00;;;4.07;;
13704;SDS011;6924;52.122;9.952;2023-03-01T11:50:00;5.27;;;3.90;;
13704;SDS011;6924;52.122;9.952;2023-03-01T11:52:37;4.93;;;4.37;;
13704;SDS011;6924;52.122;9.952;2023-03-01T11:55:19;4.73;;;4.23;;
13704;SDS011;6924;52.122;9.952;2023-03-01T11:58:00;5.50;;;4.27;;
13704;SDS011;6924;52.122;9.952;2023-03-01T12:00:51;4.33;;;3.90;;
13704;SDS011;6924;52.122;9.952;2023-03-01T12:03:30;4.83;;;3.87;;
13704;SDS011;6924;52.122;9.952;2023-03-01T12:06:10;6.20;;;3.60;;
13704;SDS011;6924;52.122;9.952;2023-03-01T12:08:51;3.80;;;3.30;;
13704;SDS011;6924;52.122;9.952;2023-03-01T12:11:28;4.40;;;3.70;;
13704;SDS011;6924;52.122;9.952;2023-03-01T12:14:22;3.47;;;2.80;;
13704;SDS011;6924;52.122;9.952;2023-03-01T12:17:09;4.47;;;3.80;;
13704;SDS011;6924;52.122;9.952;2023-03-01T12:19:58;9.07;;;3.70;;
13704;SDS011;6924;52.122;9.952;2023-03-01T12:22:37;4.77;;;2.87;;
13704;SDS011;6924;52.122;9.952;2023-03-01T12:28:04;4.93;;;3.07;;
13704;SDS011;6924;52.122;9.952;2023-03-01T12:30:51;4.17;;;3.50;;
13704;SDS011;6924;52.122;9.952;2023-03-01T12:33:33;6.60;;;3.43;;
13704;SDS011;6924;52.122;9.952;2023-03-01T12:39:19;4.60;;;3.27;;
13704;SDS011;6924;52.122;9.952;2023-03-01T12:42:02;5.10;;;3.30;;
13704;SDS011;6924;52.122;9.952;2023-03-01T12:44:40;7.40;;;3.80;;
13704;SDS011;6924;52.122;9.952;2023-03-01T12:47:23;5.13;;;4.20;;
13704;SDS011;6924;52.122;9.952;2023-03-01T12:50:02;4.60;;;2.67;;
13704;SDS011;6924;52.122;9.952;2023-03-01T12:52:37;5.43;;;3.63;;
13704;SDS011;6924;52.122;9.952;2023-03-01T12:55:08;4.27;;;3.07;;
13704;SDS011;6924;52.122;9.952;2023-03-01T12:57:51;4.03;;;3.00;;
13704;SDS011;6924;52.122;9.952;2023-03-01T13:00:27;3.47;;;3.00;;
13704;SDS011;6924;52.122;9.952;2023-03-01T13:02:59;4.47;;;3.27;;
13704;SDS011;6924;52.122;9.952;2023-03-01T13:05:39;5.27;;;2.67;;
13704;SDS011;6924;52.122;9.952;2023-03-01T13:08:14;3.47;;;3.07;;
13704;SDS011;6924;52.122;9.952;2023-03-01T13:10:46;3.97;;;3.03;;
13704;SDS011;6924;52.122;9.952;2023-03-01T13:13:21;3.80;;;2.83;;
13704;SDS011;6924;52.122;9.952;2023-03-01T13:15:48;3.70;;;2.80;;
13704;SDS011;6924;52.122;9.952;2023-03-01T13:18:29;4.00;;;2.90;;
13704;SDS011;6924;52.122;9.952;2023-03-01T13:20:58;3.47;;;3.00;;
13704;SDS011;6924;52.122;9.952;2023-03-01T13:23:28;7.27;;;3.60;;
13704;SDS011;6924;52.122;9.952;2023-03-01T13:26:01;3.00;;;2.63;;
13704;SDS011;6924;52.122;9.952;2023-03-01T13:28:37;3.67;;;3.10;;
13704;SDS011;6924;52.122;9.952;2023-03-01T13:31:07;3.83;;;2.70;;
13704;SDS011;6924;52.122;9.952;2023-03-01T13:33:44;3.67;;;2.90;;
13704;SDS011;6924;52.122;9.952;2023-03-01T13:36:13;3.90;;;2.97;;
13704;SDS011;6924;52.122;9.952;2023-03-01T13:39:26;5.67;;;3.03;;
13704;SDS011;6924;52.122;9.952;2023-03-01T13:41:57;2.97;;;2.67;;
13704;SDS011;6924;52.122;9.952;2023-03-01T13:44:26;3.83;;;3.17;;
13704;SDS011;6924;52.122;9.952;2023-03-01T13:46:58;4.80;;;3.03;;
13704;SDS011;6924;52.122;9.952;2023-03-01T13:49:27;3.20;;;2.63;;
13704;SDS011;6924;52.122;9.952;2023-03-01T13:51:59;4.40;;;3.07;;
13704;SDS011;6924;52.122;9.952;2023-03-01T13:54:29;4.10;;;3.13;;
13704;SDS011;6924;52.122;9.952;2023-03-01T13:56:58;2.57;;;2.37;;
13704;SDS011;6924;52.122;9.952;2023-03-01T13:59:27;3.70;;;2.70;;
13704;SDS011;6924;52.122;9.952;2023-03-01T14:01:55;3.50;;;2.70;;
13704;SDS011;6924;52.122;9.952;2023-03-01T14:04:24;4.33;;;2.63;;
13704;SDS011;6924;52.122;9.952;2023-03-01T14:06:52;3.80;;;2.90;;
13704;SDS011;6924;52.122;9.952;2023-03-01T14:09:35;4.27;;;2.50;;
13704;SDS011;6924;52.122;9.952;2023-03-01T14:12:10;8.20;;;3.57;;
13704;SDS011;6924;52.122;9.952;2023-03-01T14:14:49;4.80;;;2.83;;
13704;SDS011;6924;52.122;9.952;2023-03-01T14:17:29;4.00;;;2.60;;
13704;SDS011;6924;52.122;9.952;2023-03-01T14:20:07;3.60;;;2.80;;
13704;SDS011;6924;52.122;9.952;2023-03-01T14:22:38;4.00;;;3.67;;
13704;SDS011;6924;52.122;9.952;2023-03-01T14:25:16;5.13;;;3.53;;
13704;SDS011;6924;52.122;9.952;2023-03-01T14:27:50;4.13;;;3.13;;
13704;SDS011;6924;52.122;9.952;2023-03-01T14:30:22;5.27;;;3.50;;
13704;SDS011;6924;52.122;9.952;2023-03-01T14:32:54;3.60;;;3.00;;
13704;SDS011;6924;52.122;9.952;2023-03-01T14:35:23;4.43;;;3.67;;
13704;SDS011;6924;52.122;9.952;2023-03-01T14:37:50;5.23;;;2.97;;
13704;SDS011;6924;52.122;9.952;2023-03-01T14:40:21;3.47;;;3.03;;
13704;SDS011;6924;52.122;9.952;2023-03-01T14:42:49;4.37;;;3.03;;
13704;SDS011;6924;52.122;9.952;2023-03-01T14:45:17;3.30;;;3.00;;
13704;SDS011;6924;52.122;9.952;2023-03-01T14:47:46;4.57;;;3.10;;
13704;SDS011;6924;52.122;9.952;2023-03-01T14:50:20;3.30;;;3.00;;
13704;SDS011;6924;52.122;9.952;2023-03-01T14:52:50;3.87;;;3.00;;
13704;SDS011;6924;52.122;9.952;2023-03-01T14:55:20;2.97;;;2.53;;
13704;SDS011;6924;52.122;9.952;2023-03-01T14:57:49;3.10;;;2.80;;
13704;SDS011;6924;52.122;9.952;2023-03-01T15:00:18;3.92;;;3.20;;
13704;SDS011;6924;52.122;9.952;2023-03-01T15:02:48;4.60;;;3.03;;
13704;SDS011;6924;52.122;9.952;2023-03-01T15:05:18;3.17;;;2.57;;
13704;SDS011;6924;52.122;9.952;2023-03-01T15:07:49;2.77;;;2.20;;
13704;SDS011;6924;52.122;9.952;2023-03-01T15:10:19;3.00;;;2.43;;
13704;SDS011;6924;52.122;9.952;2023-03-01T15:12:47;3.63;;;2.50;;
13704;SDS011;6924;52.122;9.952;2023-03-01T15:15:23;4.50;;;3.23;;
13704;SDS011;6924;52.122;9.952;2023-03-01T15:17:59;3.70;;;2.80;;
13704;SDS011;6924;52.122;9.952;2023-03-01T15:20:28;2.23;;;2.03;;
13704;SDS011;6924;52.122;9.952;2023-03-01T15:23:00;3.13;;;2.53;;
13704;SDS011;6924;52.122;9.952;2023-03-01T15:25:28;4.40;;;2.70;;
13704;SDS011;6924;52.122;9.952;2023-03-01T15:27:57;2.97;;;2.40;;